createdAt,value
2017-10-26T00:00:35.248Z,80.60
2017-10-26T00:03:02.696Z,80.63
2017-10-26T00:05:30.080Z,80.38
2017-10-26T00:07:57.511Z,80.17
2017-10-26T00:10:24.896Z,79.53
2017-10-26T00:12:52.316Z,79.43
2017-10-26T00:15:19.704Z,79.61
2017-10-26T00:17:47.164Z,79.59
2017-10-26T00:20:14.571Z,79.66
2017-10-26T00:22:41.968Z,79.33
2017-10-26T00:25:09.404Z,79.08
2017-10-26T00:27:36.804Z,78.93
2017-10-26T00:30:04.244Z,78.98
2017-10-26T00:32:31.630Z,79.19
2017-10-26T00:34:59.351Z,79.09
2017-10-26T00:37:26.740Z,79.40
2017-10-26T00:39:54.160Z,79.51
2017-10-26T00:42:21.553Z,79.44
2017-10-26T00:44:48.971Z,79.15
2017-10-26T00:47:17.276Z,79.05
2017-10-26T00:49:44.726Z,79.32
2017-10-26T00:52:12.125Z,79.29
2017-10-26T00:54:39.547Z,79.27
2017-10-26T00:57:06.985Z,78.90
2017-10-26T00:59:34.388Z,79.03
2017-10-26T01:02:01.800Z,78.65
2017-10-26T01:04:29.223Z,78.92
2017-10-26T01:06:56.652Z,79.30
2017-10-26T01:09:24.062Z,79.26
2017-10-26T01:11:51.513Z,79.21
2017-10-26T01:14:18.912Z,79.36
2017-10-26T01:16:46.341Z,79.37
2017-10-26T01:19:13.767Z,79.65
2017-10-26T01:21:41.220Z,79.25
2017-10-26T01:24:08.596Z,79.34
2017-10-26T01:26:36.036Z,79.58
2017-10-26T01:29:03.465Z,79.27
2017-10-26T01:31:30.853Z,79.38
2017-10-26T01:33:58.289Z,79.51
2017-10-26T01:36:25.675Z,79.36
2017-10-26T01:38:53.112Z,79.54
2017-10-26T01:41:20.518Z,79.57
2017-10-26T01:43:47.936Z,79.86
2017-10-26T01:46:15.343Z,79.46
2017-10-26T01:48:42.768Z,79.01
2017-10-26T01:51:10.163Z,79.08
2017-10-26T01:53:37.586Z,79.07
2017-10-26T01:56:05.003Z,78.95
2017-10-26T01:58:32.448Z,78.99
2017-10-26T02:00:59.870Z,78.99
2017-10-26T02:03:27.273Z,79.10
2017-10-26T02:05:54.713Z,79.11
2017-10-26T02:08:22.133Z,78.98
2017-10-26T02:10:49.553Z,79.34
2017-10-26T02:13:16.955Z,79.66
2017-10-26T02:15:44.398Z,78.83
2017-10-26T02:18:11.808Z,78.65
2017-10-26T02:20:39.251Z,78.82
2017-10-26T02:23:06.633Z,78.70
2017-10-26T02:25:34.068Z,78.34
2017-10-26T02:28:01.453Z,78.45
2017-10-26T02:30:40.743Z,78.59
2017-10-26T02:33:08.139Z,79.11
2017-10-26T02:35:35.553Z,79.38
2017-10-26T02:38:03.042Z,79.54
2017-10-26T02:40:30.431Z,79.58
2017-10-26T02:42:57.839Z,79.87
2017-10-26T02:45:25.246Z,80.37
2017-10-26T02:47:52.709Z,80.89
2017-10-26T02:50:20.123Z,81.26
2017-10-26T02:52:47.568Z,81.13
2017-10-26T02:55:14.952Z,80.90
2017-10-26T02:57:42.376Z,79.86
2017-10-26T03:00:09.807Z,79.38
2017-10-26T03:02:37.211Z,80.43
2017-10-26T03:05:04.629Z,80.93
2017-10-26T03:07:32.032Z,81.10
2017-10-26T03:10:00.661Z,81.54
2017-10-26T03:12:28.053Z,82.01
2017-10-26T03:14:55.479Z,82.71
2017-10-26T03:17:22.901Z,83.09
2017-10-26T03:19:50.319Z,83.86
2017-10-26T03:22:17.741Z,83.99
2017-10-26T03:24:45.168Z,83.87
2017-10-26T03:27:12.573Z,84.03
2017-10-26T03:29:40.006Z,83.72
2017-10-26T03:32:07.409Z,83.29
2017-10-26T03:34:34.816Z,82.56
2017-10-26T03:37:02.229Z,82.60
2017-10-26T03:39:29.631Z,82.53
2017-10-26T03:41:57.076Z,82.44
2017-10-26T03:44:24.471Z,82.41
2017-10-26T03:46:51.922Z,82.31
2017-10-26T03:49:19.313Z,81.93
2017-10-26T03:51:46.735Z,81.97
2017-10-26T03:54:14.135Z,81.95
2017-10-26T03:56:41.613Z,81.61
2017-10-26T03:59:08.998Z,81.57
2017-10-26T04:01:36.403Z,81.46
2017-10-26T04:04:03.845Z,81.45
2017-10-26T04:06:31.264Z,81.72
2017-10-26T04:08:58.706Z,81.96
2017-10-26T04:11:26.133Z,81.62
2017-10-26T04:13:53.570Z,81.95
2017-10-26T04:16:20.955Z,81.98
2017-10-26T04:18:48.432Z,82.08
2017-10-26T04:21:15.833Z,82.26
2017-10-26T04:23:43.261Z,82.33
2017-10-26T04:26:10.704Z,82.57
2017-10-26T04:28:38.090Z,82.95
2017-10-26T04:31:05.533Z,83.09
2017-10-26T04:33:32.973Z,83.12
2017-10-26T04:36:00.394Z,83.12
2017-10-26T04:38:27.795Z,82.68
2017-10-26T04:40:55.212Z,82.81
2017-10-26T04:43:22.610Z,82.77
2017-10-26T04:45:50.043Z,82.50
2017-10-26T04:48:17.448Z,82.62
2017-10-26T04:50:44.879Z,82.70
2017-10-26T04:53:12.319Z,82.80
2017-10-26T04:55:39.759Z,82.99
2017-10-26T04:58:07.195Z,82.88
2017-10-26T05:00:34.598Z,82.68
2017-10-26T05:03:02.027Z,82.73
2017-10-26T05:05:29.446Z,82.93
2017-10-26T05:07:56.876Z,82.83
2017-10-26T05:10:24.275Z,82.88
2017-10-26T05:12:51.711Z,83.14
2017-10-26T05:15:19.145Z,83.36
2017-10-26T05:17:46.601Z,83.50
2017-10-26T05:20:14.033Z,84.05
2017-10-26T05:22:41.470Z,84.38
2017-10-26T05:25:08.903Z,84.55
2017-10-26T05:27:36.341Z,84.33
2017-10-26T05:30:03.761Z,84.16
2017-10-26T05:32:31.155Z,84.27
2017-10-26T05:34:58.589Z,84.24
2017-10-26T05:37:26.020Z,84.18
2017-10-26T05:39:53.457Z,83.94
2017-10-26T05:42:20.882Z,84.25
2017-10-26T05:44:48.317Z,84.32
2017-10-26T05:47:15.740Z,84.75
2017-10-26T05:49:43.161Z,84.75
2017-10-26T05:52:10.995Z,84.72
2017-10-26T05:54:38.450Z,84.62
2017-10-26T05:57:05.889Z,84.75
2017-10-26T05:59:33.287Z,84.92
2017-10-26T06:02:00.719Z,84.65
2017-10-26T06:04:28.124Z,84.32
2017-10-26T06:06:55.530Z,84.28
2017-10-26T06:09:23.043Z,83.97
2017-10-26T06:11:50.482Z,84.18
2017-10-26T06:14:17.955Z,83.50
2017-10-26T06:16:45.363Z,83.38
2017-10-26T06:19:12.829Z,83.55
2017-10-26T06:21:40.227Z,83.37
2017-10-26T06:24:07.695Z,82.98
2017-10-26T06:26:35.105Z,82.83
2017-10-26T06:29:02.536Z,83.17
2017-10-26T06:31:29.955Z,83.90
2017-10-26T06:33:57.394Z,84.73
2017-10-26T06:36:24.803Z,85.00
2017-10-26T06:38:52.219Z,85.15
2017-10-26T06:41:19.684Z,85.10
2017-10-26T06:43:47.094Z,84.85
2017-10-26T06:46:14.539Z,83.72
2017-10-26T06:48:41.973Z,84.32
2017-10-26T06:51:09.372Z,84.88
2017-10-26T06:53:36.799Z,85.23
2017-10-26T06:56:04.244Z,85.20
2017-10-26T06:58:31.663Z,84.47
2017-10-26T07:00:59.090Z,83.98
2017-10-26T07:03:27.432Z,83.57
2017-10-26T07:05:54.875Z,82.93
2017-10-26T07:08:23.278Z,82.11
2017-10-26T07:10:50.692Z,82.14
2017-10-26T07:13:18.144Z,82.58
2017-10-26T07:15:45.556Z,82.50
2017-10-26T07:18:12.965Z,82.52
2017-10-26T07:20:40.925Z,82.02
2017-10-26T07:23:08.352Z,81.85
2017-10-26T07:25:36.590Z,81.80
2017-10-26T07:28:03.995Z,81.38
2017-10-26T07:30:31.437Z,81.01
2017-10-26T07:32:58.873Z,81.40
2017-10-26T07:35:27.214Z,81.61
2017-10-26T07:37:55.404Z,81.55
2017-10-26T07:40:22.888Z,81.35
2017-10-26T07:42:50.596Z,81.39
2017-10-26T07:45:18.039Z,81.29
2017-10-26T07:47:45.455Z,81.05
2017-10-26T07:50:12.924Z,80.75
2017-10-26T07:52:40.336Z,80.50
2017-10-26T07:55:07.780Z,80.55
2017-10-26T07:57:35.212Z,80.62
2017-10-26T08:00:02.655Z,80.72
2017-10-26T08:02:30.126Z,80.36
2017-10-26T08:04:58.185Z,80.06
2017-10-26T08:07:25.938Z,79.91
2017-10-26T08:09:53.370Z,79.64
2017-10-26T08:12:21.522Z,79.51
2017-10-26T08:14:50.265Z,79.52
2017-10-26T08:17:18.721Z,80.12
2017-10-26T08:19:46.204Z,80.54
2017-10-26T08:22:13.648Z,79.95
2017-10-26T08:24:41.979Z,80.02
2017-10-26T08:27:10.902Z,79.99
2017-10-26T08:29:38.301Z,79.63
2017-10-26T08:32:05.827Z,79.50
2017-10-26T08:34:33.261Z,79.34
2017-10-26T08:37:00.717Z,79.07
2017-10-26T08:39:28.171Z,78.70
2017-10-26T08:41:55.618Z,78.03
2017-10-26T08:44:23.021Z,78.01
2017-10-26T08:46:50.460Z,78.33
2017-10-26T08:49:17.916Z,78.10
2017-10-26T08:51:45.308Z,77.61
2017-10-26T08:54:12.812Z,77.44
2017-10-26T08:56:40.237Z,77.87
2017-10-26T08:59:07.709Z,77.50
2017-10-26T09:01:35.108Z,76.84
2017-10-26T09:04:02.551Z,76.74
2017-10-26T09:06:29.986Z,77.00
2017-10-26T09:08:57.417Z,76.93
2017-10-26T09:11:24.819Z,77.01
2017-10-26T09:13:52.289Z,77.03
2017-10-26T09:16:19.730Z,77.19
2017-10-26T09:18:47.225Z,76.77
2017-10-26T09:21:14.692Z,77.21
2017-10-26T09:23:42.964Z,77.58
2017-10-26T09:26:10.440Z,77.59
2017-10-26T09:28:37.876Z,77.70
2017-10-26T09:31:05.384Z,77.49
2017-10-26T09:33:38.704Z,77.44
2017-10-26T09:36:06.151Z,77.23
2017-10-26T09:38:33.564Z,76.84
2017-10-26T09:41:01.201Z,76.33
2017-10-26T09:43:28.662Z,75.89
2017-10-26T09:45:56.089Z,75.67
2017-10-26T09:48:23.524Z,75.44
2017-10-26T09:50:50.943Z,75.10
2017-10-26T09:53:18.402Z,75.10
2017-10-26T09:55:45.808Z,74.59
2017-10-26T09:58:13.199Z,74.73
2017-10-26T10:00:40.639Z,74.82
2017-10-26T10:03:08.037Z,75.70
2017-10-26T10:05:35.464Z,76.79
2017-10-26T10:08:02.867Z,76.95
2017-10-26T10:10:30.297Z,77.16
2017-10-26T10:12:57.707Z,77.71
2017-10-26T10:15:25.155Z,77.47
2017-10-26T10:17:52.587Z,77.65
2017-10-26T10:20:20.137Z,77.58
2017-10-26T10:22:47.545Z,77.92
2017-10-26T10:25:14.960Z,78.24
2017-10-26T10:27:42.365Z,78.47
2017-10-26T10:30:09.815Z,78.77
2017-10-26T10:32:37.215Z,78.70
2017-10-26T10:35:05.510Z,78.86
2017-10-26T10:37:34.293Z,79.26
2017-10-26T10:40:01.684Z,79.22
2017-10-26T10:42:30.025Z,79.42
2017-10-26T10:44:57.438Z,79.32
2017-10-26T10:47:24.861Z,79.28
2017-10-26T10:49:52.295Z,79.20
2017-10-26T10:52:19.743Z,79.09
2017-10-26T10:54:47.177Z,79.07
2017-10-26T10:57:14.588Z,79.14
2017-10-26T10:59:47.611Z,79.06
2017-10-26T11:02:15.860Z,78.91
2017-10-26T11:04:44.016Z,79.00
2017-10-26T11:07:11.452Z,78.85
2017-10-26T11:09:38.904Z,79.33
2017-10-26T11:12:06.308Z,79.16
2017-10-26T11:14:33.740Z,79.16
2017-10-26T11:17:01.207Z,79.40
2017-10-26T11:19:28.627Z,79.30
2017-10-26T11:21:56.456Z,79.27
2017-10-26T11:24:23.876Z,79.04
2017-10-26T11:26:51.335Z,78.94
2017-10-26T11:29:18.757Z,79.44
2017-10-26T11:31:46.403Z,79.10
2017-10-26T11:34:13.851Z,79.20
2017-10-26T11:36:41.284Z,78.97
2017-10-26T11:39:08.714Z,78.93
2017-10-26T11:41:36.151Z,78.83
2017-10-26T11:44:03.572Z,78.91
2017-10-26T11:46:31.074Z,78.79
2017-10-26T11:48:58.548Z,78.77
2017-10-26T11:51:26.053Z,78.83
2017-10-26T11:53:53.534Z,78.71
2017-10-26T11:56:21.840Z,78.78
2017-10-26T11:58:49.279Z,78.81
2017-10-26T12:01:16.887Z,78.97
2017-10-26T12:03:44.410Z,78.57
2017-10-26T12:06:11.802Z,78.44
2017-10-26T12:08:39.226Z,78.32
2017-10-26T12:11:06.732Z,78.25
2017-10-26T12:13:34.205Z,78.21
2017-10-26T12:16:01.670Z,78.10
2017-10-26T12:18:29.071Z,78.04
2017-10-26T12:20:56.492Z,77.85
2017-10-26T12:23:23.943Z,77.69
2017-10-26T12:25:52.384Z,77.30
2017-10-26T12:28:19.804Z,77.22
2017-10-26T12:30:47.236Z,77.15
2017-10-26T12:33:14.768Z,77.02
2017-10-26T12:35:42.230Z,77.26
2017-10-26T12:38:09.656Z,77.29
2017-10-26T12:40:37.110Z,77.35
2017-10-26T12:43:04.552Z,77.13
2017-10-26T12:45:32.000Z,77.07
2017-10-26T12:47:59.424Z,76.94
2017-10-26T12:50:26.898Z,76.97
2017-10-26T12:52:54.306Z,77.22
2017-10-26T12:55:21.746Z,77.29
2017-10-26T12:57:49.184Z,77.25
2017-10-26T13:00:16.597Z,77.14
2017-10-26T13:02:44.531Z,77.49
2017-10-26T13:05:11.965Z,78.01
2017-10-26T13:07:39.419Z,78.29
2017-10-26T13:10:08.415Z,77.99
2017-10-26T13:12:36.028Z,78.08
2017-10-26T13:15:03.466Z,78.13
2017-10-26T13:17:30.887Z,78.21
2017-10-26T13:19:58.343Z,78.04
2017-10-26T13:22:25.773Z,77.88
2017-10-26T13:24:53.233Z,77.78
2017-10-26T13:27:21.485Z,77.53
2017-10-26T13:29:48.900Z,77.65
2017-10-26T13:32:16.349Z,77.76
2017-10-26T13:34:44.029Z,77.82
2017-10-26T13:37:11.502Z,77.92
2017-10-26T13:39:39.068Z,77.88
2017-10-26T13:42:06.482Z,77.44
2017-10-26T13:44:34.834Z,76.73
2017-10-26T13:47:02.238Z,76.42
2017-10-26T13:49:29.676Z,75.83
2017-10-26T13:51:57.098Z,75.18
2017-10-26T13:54:24.589Z,75.06
2017-10-26T13:56:51.984Z,75.24
2017-10-26T13:59:19.400Z,75.46
2017-10-26T14:01:46.819Z,75.19
2017-10-26T14:04:14.276Z,75.16
2017-10-26T14:06:41.750Z,74.82
2017-10-26T14:09:09.780Z,74.68
2017-10-26T14:11:37.239Z,73.83
2017-10-26T14:14:04.647Z,73.69
2017-10-26T14:16:32.218Z,73.59
2017-10-26T14:18:59.670Z,72.72
2017-10-26T14:21:27.089Z,72.94
2017-10-26T14:23:54.534Z,72.79
2017-10-26T14:26:21.950Z,72.71
2017-10-26T14:28:49.424Z,72.29
2017-10-26T14:31:16.859Z,72.34
2017-10-26T14:33:44.311Z,72.01
2017-10-26T14:36:11.723Z,71.93
2017-10-26T14:38:39.161Z,71.90
2017-10-26T14:41:06.623Z,72.60
2017-10-26T14:43:34.131Z,72.51
2017-10-26T14:46:01.537Z,72.33
2017-10-26T14:48:28.987Z,72.32
2017-10-26T14:50:56.431Z,72.50
2017-10-26T14:53:23.888Z,72.36
2017-10-26T14:55:51.304Z,72.30
2017-10-26T14:58:18.776Z,72.51
2017-10-26T15:00:46.250Z,72.01
2017-10-26T15:03:13.685Z,72.19
2017-10-26T15:05:41.120Z,72.30
2017-10-26T15:08:08.572Z,72.31
2017-10-26T15:10:36.040Z,72.41
2017-10-26T15:13:03.467Z,72.42
2017-10-26T15:15:30.897Z,72.53
2017-10-26T15:17:58.319Z,72.60
2017-10-26T15:20:25.803Z,73.01
2017-10-26T15:22:53.281Z,73.55
2017-10-26T15:25:20.716Z,73.90
2017-10-26T15:27:48.182Z,74.13
2017-10-26T15:30:15.605Z,74.31
2017-10-26T15:32:43.029Z,74.45
2017-10-26T15:35:10.516Z,74.61
2017-10-26T15:37:37.942Z,74.81
2017-10-26T15:40:05.458Z,74.82
2017-10-26T15:42:32.997Z,75.12
2017-10-26T15:45:00.449Z,75.17
2017-10-26T15:47:27.920Z,75.34
2017-10-26T15:49:55.340Z,75.42
2017-10-26T15:52:22.820Z,75.43
2017-10-26T15:54:50.286Z,75.46
2017-10-26T15:57:17.696Z,75.58
2017-10-26T15:59:45.141Z,75.61
2017-10-26T16:02:12.580Z,75.61
2017-10-26T16:04:40.100Z,75.40
2017-10-26T16:07:07.552Z,75.43
2017-10-26T16:09:35.019Z,75.49
2017-10-26T16:12:02.507Z,75.55
2017-10-26T16:14:29.964Z,75.65
2017-10-26T16:16:57.419Z,76.17
2017-10-26T16:19:24.974Z,76.22
2017-10-26T16:21:52.506Z,76.38
2017-10-26T16:24:19.928Z,76.52
2017-10-26T16:26:47.382Z,76.48
2017-10-26T16:29:14.819Z,77.14
2017-10-26T16:31:42.233Z,77.57
2017-10-26T16:34:09.695Z,77.71
2017-10-26T16:36:37.137Z,77.85
2017-10-26T16:39:04.569Z,77.97
2017-10-26T16:41:32.041Z,78.14
2017-10-26T16:43:59.480Z,78.41
2017-10-26T16:46:26.943Z,78.44
2017-10-26T16:48:54.362Z,78.59
2017-10-26T16:51:21.860Z,78.54
2017-10-26T16:53:49.303Z,78.49
2017-10-26T16:56:16.765Z,78.64
2017-10-26T16:58:44.209Z,78.80
2017-10-26T17:01:11.633Z,78.91
2017-10-26T17:03:39.085Z,79.11
2017-10-26T17:06:06.503Z,79.18
2017-10-26T17:08:33.938Z,79.17
2017-10-26T17:11:01.373Z,79.18
2017-10-26T17:13:28.800Z,79.02
2017-10-26T17:15:56.228Z,79.26
2017-10-26T17:18:23.686Z,79.30
2017-10-26T17:20:51.097Z,79.27
2017-10-26T17:23:18.547Z,79.39
2017-10-26T17:25:45.980Z,79.49
2017-10-26T17:28:13.430Z,79.47
2017-10-26T17:30:40.889Z,79.62
2017-10-26T17:33:08.300Z,79.71
2017-10-26T17:35:35.755Z,79.78
2017-10-26T17:38:03.157Z,80.07
2017-10-26T17:40:30.627Z,80.28
2017-10-26T17:42:58.093Z,80.57
2017-10-26T17:45:25.510Z,80.60
2017-10-26T17:47:52.977Z,80.66
2017-10-26T17:50:20.363Z,80.84
2017-10-26T17:52:47.796Z,80.87
2017-10-26T17:55:15.230Z,80.88
2017-10-26T17:57:42.674Z,81.13
2017-10-26T18:00:10.080Z,81.39
2017-10-26T18:02:37.534Z,81.48
2017-10-26T18:05:04.944Z,81.47
2017-10-26T18:07:32.415Z,81.58
2017-10-26T18:09:59.838Z,81.52
2017-10-26T18:12:27.258Z,81.53
2017-10-26T18:14:54.681Z,81.69
2017-10-26T18:17:22.169Z,81.72
2017-10-26T18:19:49.616Z,81.67
2017-10-26T18:22:17.006Z,81.90
2017-10-26T18:24:44.440Z,81.87
2017-10-26T18:27:11.875Z,81.88
2017-10-26T18:29:39.370Z,81.87
2017-10-26T18:32:06.808Z,82.02
2017-10-26T18:34:34.229Z,81.96
2017-10-26T18:37:01.704Z,82.00
2017-10-26T18:39:29.135Z,82.04
2017-10-26T18:41:56.571Z,82.00
2017-10-26T18:44:23.988Z,81.98
2017-10-26T18:46:51.439Z,82.07
2017-10-26T18:49:18.861Z,82.05
2017-10-26T18:51:46.304Z,82.05
2017-10-26T18:54:13.707Z,82.13
2017-10-26T18:56:41.163Z,82.18
2017-10-26T18:59:08.633Z,82.18
2017-10-26T19:01:36.087Z,82.35
2017-10-26T19:04:03.532Z,82.48
2017-10-26T19:06:30.934Z,82.49
2017-10-26T19:08:58.376Z,82.43
2017-10-26T19:11:25.815Z,82.55
2017-10-26T19:13:53.270Z,82.45
2017-10-26T19:16:20.688Z,82.68
2017-10-26T19:18:48.159Z,82.51
2017-10-26T19:21:15.593Z,82.61
2017-10-26T19:23:43.019Z,82.52
2017-10-26T19:26:10.468Z,82.38
2017-10-26T19:28:37.889Z,82.54
2017-10-26T19:31:05.329Z,82.60
2017-10-26T19:33:32.750Z,82.72
2017-10-26T19:36:00.170Z,82.83
2017-10-26T19:38:27.607Z,82.81
2017-10-26T19:40:55.039Z,82.79
2017-10-26T19:43:22.545Z,82.88
2017-10-26T19:45:49.969Z,82.93
2017-10-26T19:48:17.412Z,82.81
2017-10-26T19:50:44.829Z,82.59
2017-10-26T19:53:12.295Z,82.48
2017-10-26T19:55:39.726Z,82.55
2017-10-26T19:58:07.190Z,82.69
2017-10-26T20:00:34.647Z,82.94
2017-10-26T20:03:02.052Z,82.97
2017-10-26T20:05:29.487Z,82.88
2017-10-26T20:07:56.896Z,82.92
2017-10-26T20:10:24.347Z,82.90
2017-10-26T20:12:51.756Z,83.03
2017-10-26T20:15:19.210Z,83.21
2017-10-26T20:17:46.620Z,82.66
2017-10-26T20:20:14.077Z,82.28
2017-10-26T20:22:41.497Z,82.14
2017-10-26T20:25:08.912Z,82.31
2017-10-26T20:27:36.971Z,82.24
2017-10-26T20:30:04.419Z,82.29
2017-10-26T20:32:31.845Z,82.25
2017-10-26T20:34:59.643Z,82.08
2017-10-26T20:37:27.116Z,82.10
2017-10-26T20:39:54.551Z,82.16
2017-10-26T20:42:22.021Z,82.18
2017-10-26T20:44:49.435Z,82.25
2017-10-26T20:47:16.842Z,82.34
2017-10-26T20:49:49.845Z,82.22
2017-10-26T20:52:22.963Z,82.23
2017-10-26T20:54:55.907Z,82.13
2017-10-26T20:57:28.955Z,82.09
2017-10-26T21:00:01.870Z,82.24
2017-10-26T21:02:34.956Z,82.35
2017-10-26T21:05:07.865Z,82.56
2017-10-26T21:07:40.779Z,82.58
2017-10-26T21:10:13.706Z,82.21
2017-10-26T21:12:47.160Z,81.82
2017-10-26T21:15:14.696Z,81.60
2017-10-26T21:17:42.109Z,81.57
2017-10-26T21:20:09.533Z,81.58
2017-10-26T21:22:36.964Z,81.46
2017-10-26T21:25:04.495Z,81.51
2017-10-26T21:27:31.977Z,81.47
2017-10-26T21:29:59.402Z,81.39
2017-10-26T21:32:26.827Z,81.37
2017-10-26T21:34:54.242Z,81.54
2017-10-26T21:37:21.700Z,82.53
2017-10-26T21:39:49.281Z,84.25
2017-10-26T23:23:10.756Z,85.02
2017-10-26T23:25:38.223Z,84.52
2017-10-26T23:28:05.618Z,84.13
2017-10-26T23:30:33.075Z,85.08
2017-10-26T23:33:00.501Z,85.44
2017-10-26T23:35:27.957Z,86.54
2017-10-26T23:37:55.373Z,86.61
2017-10-26T23:40:22.854Z,86.78
2017-10-26T23:42:50.292Z,87.42
2017-10-26T23:45:17.720Z,88.07
2017-10-26T23:47:45.155Z,88.42
2017-10-26T23:50:12.560Z,88.44
2017-10-26T23:52:40.034Z,88.34
2017-10-26T23:55:07.461Z,87.98
2017-10-26T23:57:34.895Z,87.48
